createdAt,value
2022-11-02T00:01:20.442Z,26.15
2022-11-02T00:03:22.442Z,27.83
2022-11-02T00:05:24.808Z,27.80
2022-11-02T00:07:26.642Z,29.15
2022-11-02T00:09:28.486Z,30.15
2022-11-02T00:11:30.602Z,27.63
2022-11-02T00:15:36.072Z,30.60
2022-11-02T00:17:39.682Z,32.45
2022-11-02T00:19:41.591Z,32.33
2022-11-02T00:21:43.649Z,31.08
2022-11-02T00:25:50.335Z,29.85
2022-11-02T00:27:52.255Z,30.85
2022-11-02T00:29:54.290Z,28.38
2022-11-02T00:31:58.433Z,31.67
2022-11-02T00:34:00.282Z,31.38
2022-11-02T00:36:02.174Z,32.80
2022-11-02T00:38:04.879Z,31.02
2022-11-02T00:40:07.543Z,29.75
2022-11-02T00:42:09.509Z,29.08
2022-11-02T00:44:11.350Z,30.13
2022-11-02T00:46:13.223Z,29.52
2022-11-02T00:48:15.109Z,29.48
2022-11-02T00:50:17.231Z,30.38
2022-11-02T00:54:24.517Z,28.80
2022-11-02T00:56:29.412Z,29.23
2022-11-02T00:58:31.235Z,28.42
2022-11-02T01:00:33.107Z,29.67
2022-11-02T01:02:35.220Z,29.60
2022-11-02T01:04:37.196Z,29.15
2022-11-02T01:06:39.081Z,29.20
2022-11-02T01:08:42.543Z,28.73
2022-11-02T01:10:48.112Z,27.85
2022-11-02T01:12:50.452Z,26.67
2022-11-02T01:14:52.340Z,29.40
2022-11-02T01:16:54.252Z,28.75
2022-11-02T01:18:57.331Z,26.90
2022-11-02T01:20:59.968Z,24.95
2022-11-02T01:23:01.793Z,27.67
2022-11-02T01:25:04.439Z,28.05
2022-11-02T01:27:06.268Z,27.77
2022-11-02T01:29:08.169Z,27.65
2022-11-02T01:31:11.184Z,27.48
2022-11-02T01:33:13.048Z,24.48
2022-11-02T01:35:14.933Z,25.42
2022-11-02T01:37:16.850Z,25.52
2022-11-02T01:39:18.698Z,26.02
2022-11-02T01:41:20.557Z,25.95
2022-11-02T01:43:26.433Z,23.75
2022-11-02T01:45:28.457Z,23.77
2022-11-02T01:49:37.912Z,22.38
2022-11-02T01:51:42.167Z,23.17
2022-11-02T01:53:49.441Z,25.30
2022-11-02T01:55:51.689Z,23.38
2022-11-02T01:57:57.880Z,23.30
2022-11-02T02:00:07.791Z,21.65
2022-11-02T02:02:16.928Z,23.00
2022-11-02T02:04:20.038Z,21.80
2022-11-02T02:06:22.183Z,20.75
2022-11-02T02:08:26.980Z,21.17
2022-11-02T02:10:28.825Z,21.25
2022-11-02T02:12:32.153Z,20.95
2022-11-02T02:14:35.158Z,20.83
2022-11-02T02:17:07.890Z,21.15
2022-11-02T02:21:33.463Z,20.08
2022-11-02T02:23:58.540Z,19.63
2022-11-02T02:26:12.284Z,20.48
2022-11-02T02:28:33.724Z,19.15
2022-11-02T02:30:41.300Z,20.42
2022-11-02T02:33:08.231Z,18.95
2022-11-02T02:35:16.562Z,19.85
2022-11-02T02:37:27.955Z,21.52
2022-11-02T02:39:48.794Z,20.97
2022-11-02T02:42:09.851Z,26.45
2022-11-02T02:44:17.852Z,23.58
2022-11-02T02:46:25.752Z,22.50
2022-11-02T02:48:27.748Z,19.50
2022-11-02T02:50:45.129Z,20.90
2022-11-02T02:52:50.772Z,20.27
2022-11-02T02:54:57.117Z,18.10
2022-11-02T02:57:06.833Z,19.52
2022-11-02T02:59:13.559Z,18.73
2022-11-02T03:01:17.153Z,19.05
2022-11-02T03:03:24.026Z,17.15
2022-11-02T03:05:31.563Z,17.45
2022-11-02T03:07:34.516Z,16.88
2022-11-02T03:10:17.645Z,16.20
2022-11-02T03:12:40.772Z,18.05
2022-11-02T03:15:05.410Z,19.23
2022-11-02T03:17:20.529Z,19.15
2022-11-02T03:19:42.764Z,17.65
2022-11-02T03:21:45.594Z,18.52
2022-11-02T03:24:00.665Z,19.58
2022-11-02T03:26:05.517Z,17.92
2022-11-02T03:28:13.281Z,17.88
2022-11-02T03:30:19.873Z,17.15
2022-11-02T03:32:29.287Z,17.67
2022-11-02T03:34:39.223Z,17.88
2022-11-02T03:37:06.110Z,19.10
2022-11-02T03:39:11.593Z,18.52
2022-11-02T03:41:14.948Z,19.60
2022-11-02T03:43:18.501Z,18.05
2022-11-02T03:45:23.750Z,20.65
2022-11-02T03:47:30.988Z,20.73
2022-11-02T03:49:34.152Z,22.40
2022-11-02T03:51:42.938Z,21.33
2022-11-02T03:53:52.811Z,18.02
2022-11-02T03:56:01.064Z,19.02
2022-11-02T03:58:03.552Z,17.63
2022-11-02T04:00:26.782Z,19.10
2022-11-02T04:02:30.110Z,18.52
2022-11-02T04:04:32.201Z,19.52
2022-11-02T04:06:35.213Z,20.00
2022-11-02T04:08:40.669Z,18.10
2022-11-02T04:11:02.680Z,18.58
2022-11-02T04:13:23.283Z,18.10
2022-11-02T04:15:25.084Z,18.08
2022-11-02T04:17:45.862Z,16.00
2022-11-02T04:19:50.078Z,15.38
2022-11-02T04:22:10.634Z,14.48
2022-11-02T04:24:31.231Z,13.50
2022-11-02T04:26:33.246Z,15.27
2022-11-02T04:28:35.929Z,12.88
2022-11-02T04:30:37.797Z,13.45
2022-11-02T04:32:59.188Z,13.27
2022-11-02T04:39:53.817Z,13.90
2022-11-02T04:44:15.966Z,12.18
2022-11-02T04:46:17.919Z,14.05
2022-11-02T04:48:19.989Z,13.88
2022-11-02T04:52:23.652Z,14.00
2022-11-02T04:54:26.102Z,13.95
2022-11-02T04:56:29.601Z,14.50
2022-11-02T04:58:31.435Z,13.07
2022-11-02T05:00:33.274Z,12.38
2022-11-02T05:02:35.322Z,14.88
2022-11-02T05:06:38.951Z,14.50
2022-11-02T05:08:40.985Z,12.85
2022-11-02T05:12:44.664Z,11.90
2022-11-02T05:14:46.558Z,13.85
2022-11-02T05:16:48.389Z,13.10
2022-11-02T05:18:50.205Z,13.40
2022-11-02T05:20:53.886Z,13.68
2022-11-02T05:22:55.739Z,12.75
2022-11-02T05:24:57.612Z,12.10
2022-11-02T05:27:00.537Z,12.80
2022-11-02T05:29:02.717Z,12.20
2022-11-02T05:31:05.504Z,12.65
2022-11-02T05:33:07.565Z,13.98
2022-11-02T05:35:09.991Z,13.65
2022-11-02T05:37:11.852Z,12.35
2022-11-02T05:39:13.844Z,14.02
2022-11-02T05:41:15.693Z,13.73
2022-11-02T05:43:17.751Z,12.40
2022-11-02T05:47:26.471Z,12.98
2022-11-02T05:49:28.307Z,15.00
2022-11-02T05:51:30.235Z,14.52
2022-11-02T05:53:34.143Z,15.38
2022-11-02T05:55:36.086Z,16.15
2022-11-02T05:57:38.147Z,16.40
2022-11-02T06:01:42.855Z,15.60
2022-11-02T06:03:48.995Z,15.27
2022-11-02T06:05:58.416Z,15.05
2022-11-02T06:08:03.442Z,14.38
2022-11-02T06:10:05.911Z,15.43
2022-11-02T06:12:08.074Z,12.38
2022-11-02T06:16:19.985Z,13.88
2022-11-02T06:18:24.389Z,13.00
2022-11-02T06:20:26.234Z,11.93
2022-11-02T06:22:28.099Z,12.93
2022-11-02T06:24:30.012Z,11.45
2022-11-02T06:26:31.862Z,11.95
2022-11-02T06:28:33.759Z,11.25
2022-11-02T06:30:35.691Z,11.43
2022-11-02T06:32:37.555Z,11.60
2022-11-02T06:34:39.411Z,12.02
2022-11-02T06:36:41.288Z,11.05
2022-11-02T06:38:44.159Z,11.57
2022-11-02T06:41:07.717Z,11.15
2022-11-02T06:43:17.942Z,11.25
2022-11-02T06:45:19.943Z,12.13
2022-11-02T06:47:21.917Z,13.48
2022-11-02T06:49:23.787Z,18.33
2022-11-02T06:51:25.616Z,18.65
2022-11-02T06:53:27.480Z,15.38
2022-11-02T06:55:29.323Z,14.77
2022-11-02T06:57:36.977Z,16.08
2022-11-02T06:59:38.823Z,22.52
2022-11-02T07:01:40.927Z,19.92
2022-11-02T07:03:42.907Z,14.25
2022-11-02T07:05:53.544Z,12.52
2022-11-02T07:07:55.700Z,12.52
2022-11-02T07:11:59.336Z,12.63
2022-11-02T07:14:01.239Z,13.60
2022-11-02T07:16:03.146Z,14.20
2022-11-02T07:18:06.344Z,14.32
2022-11-02T07:20:10.714Z,13.68
2022-11-02T07:22:12.561Z,17.85
2022-11-02T07:24:14.510Z,18.80
2022-11-02T07:26:16.329Z,18.63
2022-11-02T07:28:18.352Z,19.13
2022-11-02T07:30:21.987Z,17.77
2022-11-02T07:32:24.096Z,15.98
2022-11-02T07:36:27.700Z,15.40
2022-11-02T07:38:29.553Z,15.55
2022-11-02T07:40:33.070Z,15.75
2022-11-02T07:42:35.475Z,14.40
2022-11-02T07:44:37.327Z,16.48
2022-11-02T07:46:39.143Z,13.00
2022-11-02T07:48:41.038Z,12.75
2022-11-02T07:50:42.889Z,11.55
2022-11-02T07:52:50.195Z,11.40
2022-11-02T07:54:52.313Z,11.13
2022-11-02T07:58:55.996Z,11.75
2022-11-02T08:01:00.031Z,11.68
2022-11-02T08:03:04.161Z,12.13
2022-11-02T08:05:06.727Z,12.35
2022-11-02T08:09:11.488Z,11.30
2022-11-02T08:11:13.400Z,12.75
2022-11-02T08:13:17.792Z,14.77
2022-11-02T08:15:19.648Z,14.32
2022-11-02T08:17:21.906Z,13.77
2022-11-02T08:19:23.827Z,14.50
2022-11-02T08:21:26.404Z,17.67
2022-11-02T08:23:28.341Z,13.30
2022-11-02T08:25:30.342Z,12.23
2022-11-02T08:27:32.898Z,12.55
2022-11-02T08:29:36.835Z,15.95
2022-11-02T08:31:38.814Z,17.48
2022-11-02T08:33:40.781Z,17.02
2022-11-02T08:35:44.733Z,15.90
2022-11-02T08:37:53.934Z,15.50
2022-11-02T08:39:55.884Z,16.33
2022-11-02T08:41:57.700Z,40.10
2022-11-02T08:43:59.811Z,17.38
2022-11-02T08:48:17.855Z,15.23
2022-11-02T08:50:19.873Z,14.65
2022-11-02T08:52:21.722Z,14.82
2022-11-02T08:54:23.574Z,14.10
2022-11-02T08:56:25.558Z,14.82
2022-11-02T08:58:27.614Z,14.43
2022-11-02T09:02:32.566Z,13.50
2022-11-02T09:04:34.472Z,13.73
2022-11-02T09:06:36.386Z,15.00
2022-11-02T09:08:38.253Z,14.35
2022-11-02T09:10:40.330Z,14.60
2022-11-02T09:14:45.053Z,16.50
2022-11-02T09:16:46.909Z,15.55
2022-11-02T09:18:48.734Z,12.70
2022-11-02T09:20:51.520Z,14.25
2022-11-02T09:22:53.586Z,15.38
2022-11-02T09:24:55.410Z,15.02
2022-11-02T09:26:57.330Z,16.27
2022-11-02T09:28:59.197Z,18.52
2022-11-02T09:31:01.090Z,16.50
2022-11-02T09:33:05.715Z,14.68
2022-11-02T09:35:10.911Z,12.52
2022-11-02T09:37:12.830Z,13.52
2022-11-02T09:39:14.807Z,13.93
2022-11-02T09:41:47.478Z,13.35
2022-11-02T09:44:10.920Z,17.08
2022-11-02T09:46:27.246Z,13.27
2022-11-02T09:48:35.447Z,16.42
2022-11-02T09:50:50.255Z,20.73
2022-11-02T09:52:58.540Z,18.08
2022-11-02T09:55:05.169Z,20.88
2022-11-02T09:57:13.141Z,29.65
2022-11-02T09:59:20.591Z,15.52
2022-11-02T10:01:33.076Z,19.52
2022-11-02T10:04:00.499Z,14.23
2022-11-02T10:06:15.888Z,15.40
2022-11-02T10:08:42.150Z,21.17
2022-11-02T10:11:07.746Z,17.80
2022-11-02T10:13:40.740Z,15.00
2022-11-02T10:16:20.979Z,15.30
2022-11-02T10:18:28.491Z,17.05
2022-11-02T10:20:44.709Z,12.88
2022-11-02T10:22:47.780Z,12.55
2022-11-02T10:24:50.918Z,13.20
2022-11-02T10:26:56.679Z,13.50
2022-11-02T10:29:01.902Z,13.68
2022-11-02T10:31:04.664Z,15.18
2022-11-02T10:33:18.118Z,13.55
2022-11-02T10:35:41.159Z,13.13
2022-11-02T10:38:04.497Z,12.85
2022-11-02T10:40:21.009Z,12.95
2022-11-02T10:43:00.725Z,12.57
2022-11-02T10:45:33.014Z,12.98
2022-11-02T10:47:51.812Z,13.63
2022-11-02T10:50:24.047Z,12.55
2022-11-02T10:52:29.000Z,12.88
2022-11-02T10:54:34.488Z,12.80
2022-11-02T10:56:36.735Z,13.68
2022-11-02T10:58:44.016Z,12.95
2022-11-02T11:00:47.813Z,13.07
2022-11-02T11:03:22.745Z,12.73
2022-11-02T11:05:24.693Z,12.48
2022-11-02T11:07:28.010Z,12.75
2022-11-02T11:09:47.014Z,12.55
2022-11-02T11:12:04.764Z,13.85
2022-11-02T11:16:54.085Z,12.75
2022-11-02T11:21:18.666Z,13.55
2022-11-02T11:23:27.037Z,14.30
2022-11-02T11:25:28.951Z,14.45
2022-11-02T11:27:30.807Z,13.80
2022-11-02T11:29:35.494Z,15.15
2022-11-02T11:31:37.432Z,14.75
2022-11-02T11:33:56.000Z,14.60
2022-11-02T11:35:57.904Z,14.13
2022-11-02T11:38:20.146Z,15.93
2022-11-02T11:40:22.812Z,17.70
2022-11-02T11:42:28.913Z,17.45
2022-11-02T11:44:31.718Z,15.73
2022-11-02T11:46:46.781Z,16.42
2022-11-02T11:48:52.907Z,15.98
2022-11-02T11:50:54.871Z,14.73
2022-11-02T11:53:31.683Z,14.50
2022-11-02T11:55:33.789Z,13.68
2022-11-02T11:59:43.180Z,14.77
2022-11-02T12:01:45.115Z,12.73
2022-11-02T12:03:57.107Z,15.05
2022-11-02T12:06:14.027Z,14.55
2022-11-02T12:08:40.173Z,13.65
2022-11-02T12:10:47.960Z,14.80
2022-11-02T12:13:01.656Z,14.18
2022-11-02T12:15:28.840Z,13.82
2022-11-02T12:18:03.804Z,13.52
2022-11-02T12:20:29.776Z,12.00
2022-11-02T12:22:50.062Z,13.25
2022-11-02T12:25:06.863Z,12.65
2022-11-02T12:27:29.453Z,12.98
2022-11-02T12:31:38.770Z,13.52
2022-11-02T12:33:50.648Z,12.75
2022-11-02T12:36:01.237Z,13.63
2022-11-02T12:38:36.905Z,14.07
2022-11-02T12:41:09.670Z,13.10
2022-11-02T12:45:29.948Z,13.23
2022-11-02T12:47:57.733Z,12.15
2022-11-02T12:50:11.556Z,13.43
2022-11-02T12:52:22.753Z,14.52
2022-11-02T12:54:41.722Z,15.90
2022-11-02T12:56:52.730Z,14.50
2022-11-02T12:58:55.723Z,15.40
2022-11-02T13:01:21.470Z,14.80
2022-11-02T13:03:29.191Z,15.60
2022-11-02T13:05:38.725Z,15.40
2022-11-02T13:08:10.378Z,17.95
2022-11-02T13:10:23.911Z,15.68
2022-11-02T13:12:26.918Z,15.48
2022-11-02T13:14:38.256Z,15.13
2022-11-02T13:16:50.613Z,14.82
2022-11-02T13:21:03.045Z,17.63
2022-11-02T13:23:14.434Z,17.05
2022-11-02T13:25:20.927Z,16.17
2022-11-02T13:27:37.278Z,19.77
2022-11-02T13:29:48.849Z,16.27
2022-11-02T13:32:19.164Z,17.63
2022-11-02T13:34:35.997Z,16.25
2022-11-02T13:36:39.317Z,16.45
2022-11-02T13:39:02.096Z,14.85
2022-11-02T13:41:28.191Z,16.23
2022-11-02T13:43:33.003Z,16.23
2022-11-02T13:45:40.885Z,16.58
2022-11-02T13:47:45.696Z,17.40
2022-11-02T13:49:53.239Z,17.20
2022-11-02T13:52:20.644Z,19.95
2022-11-02T13:54:36.738Z,19.88
2022-11-02T13:56:39.037Z,19.15
2022-11-02T13:58:49.146Z,18.88
2022-11-02T14:00:52.862Z,18.83
2022-11-02T14:02:57.202Z,20.42
2022-11-02T14:05:00.083Z,19.40
2022-11-02T14:07:05.390Z,19.83
2022-11-02T14:09:10.558Z,18.17
2022-11-02T14:11:15.449Z,17.17
2022-11-02T14:13:17.681Z,19.08
2022-11-02T14:15:19.496Z,16.85
2022-11-02T14:17:21.386Z,16.35
2022-11-02T14:19:48.620Z,15.25
2022-11-02T14:21:59.479Z,17.60
2022-11-02T14:24:01.440Z,21.67
2022-11-02T14:26:03.505Z,23.92
2022-11-02T14:30:44.072Z,21.75
2022-11-02T14:33:06.931Z,21.77
2022-11-02T14:35:37.846Z,21.23
2022-11-02T14:38:16.161Z,25.23
2022-11-02T14:40:26.130Z,23.40
2022-11-02T14:42:41.410Z,23.90
2022-11-02T14:45:15.757Z,24.17
2022-11-02T14:47:19.421Z,25.05
2022-11-02T14:49:27.119Z,25.67
2022-11-02T14:51:33.995Z,27.98
2022-11-02T14:53:37.479Z,25.92
2022-11-02T14:55:39.788Z,23.98
2022-11-02T14:57:44.842Z,23.58
2022-11-02T14:59:50.673Z,21.98
2022-11-02T15:01:59.548Z,30.33
2022-11-02T15:04:07.926Z,25.67
2022-11-02T15:06:15.035Z,24.60
2022-11-02T15:08:24.261Z,25.10
2022-11-02T15:10:32.153Z,23.23
2022-11-02T15:12:40.914Z,24.77
2022-11-02T15:14:42.741Z,26.10
2022-11-02T15:16:45.543Z,24.77
2022-11-02T15:18:48.267Z,27.75
2022-11-02T15:21:25.991Z,23.30
2022-11-02T15:23:31.565Z,21.38
2022-11-02T15:25:41.475Z,22.75
2022-11-02T15:27:44.981Z,23.10
2022-11-02T15:29:48.255Z,22.98
2022-11-02T15:31:56.055Z,25.48
2022-11-02T15:34:05.636Z,23.17
2022-11-02T15:36:18.077Z,25.88
2022-11-02T15:38:32.535Z,26.88
2022-11-02T15:40:50.803Z,25.85
2022-11-02T15:42:59.141Z,29.38
2022-11-02T15:45:57.813Z,25.48
2022-11-02T15:48:34.867Z,23.90
2022-11-02T15:50:58.179Z,23.33
2022-11-02T15:53:30.288Z,21.05
2022-11-02T15:55:41.164Z,22.08
2022-11-02T15:58:15.256Z,21.63
2022-11-02T16:00:21.848Z,22.25
2022-11-02T16:02:40.046Z,23.15
2022-11-02T16:04:47.661Z,24.27
2022-11-02T16:06:49.696Z,24.95
2022-11-02T16:08:51.677Z,26.88
2022-11-02T16:11:04.886Z,28.65
2022-11-02T16:13:14.590Z,26.40
2022-11-02T16:15:19.212Z,28.45
2022-11-02T16:17:22.502Z,28.23
2022-11-02T16:19:24.341Z,28.67
2022-11-02T16:21:27.369Z,26.65
2022-11-02T16:23:31.704Z,26.38
2022-11-02T16:25:39.681Z,26.38
2022-11-02T16:27:43.346Z,26.48
2022-11-02T16:29:48.007Z,26.80
2022-11-02T16:31:49.989Z,27.75
2022-11-02T16:33:59.974Z,25.58
2022-11-02T16:36:02.312Z,28.95
2022-11-02T16:38:04.636Z,27.73
2022-11-02T16:40:07.528Z,27.42
2022-11-02T16:42:22.891Z,30.20
2022-11-02T16:44:27.699Z,29.15
2022-11-02T16:46:32.208Z,29.17
2022-11-02T16:48:34.191Z,29.33
2022-11-02T16:50:36.122Z,30.20
2022-11-02T16:52:38.382Z,28.67
2022-11-02T16:54:42.098Z,28.23
2022-11-02T16:56:49.072Z,30.67
2022-11-02T16:58:52.786Z,28.35
2022-11-02T17:01:05.222Z,29.95
2022-11-02T17:03:10.108Z,29.90
2022-11-02T17:05:22.063Z,29.80
2022-11-02T17:07:58.188Z,31.60
2022-11-02T17:10:02.781Z,35.03
2022-11-02T17:12:14.718Z,36.58
2022-11-02T17:14:19.545Z,34.40
2022-11-02T17:16:21.805Z,33.45
2022-11-02T17:18:27.542Z,32.10
2022-11-02T17:20:29.558Z,33.33
2022-11-02T17:22:36.861Z,33.38
2022-11-02T17:24:39.074Z,30.85
2022-11-02T17:26:42.014Z,31.58
2022-11-02T17:28:46.513Z,29.85
2022-11-02T17:30:48.755Z,34.08
2022-11-02T17:32:50.690Z,34.67
2022-11-02T17:34:57.275Z,34.40
2022-11-02T17:36:59.236Z,33.55
2022-11-02T17:39:04.908Z,34.38
2022-11-02T17:41:25.688Z,34.92
2022-11-02T17:43:28.100Z,33.70
2022-11-02T17:45:31.459Z,34.88
2022-11-02T17:47:33.297Z,34.00
2022-11-02T17:49:35.332Z,34.30
2022-11-02T17:53:39.348Z,34.15
2022-11-02T17:55:41.618Z,32.38
2022-11-02T17:57:43.645Z,30.17
2022-11-02T17:59:45.520Z,28.75
2022-11-02T18:01:47.624Z,32.83
2022-11-02T18:03:49.669Z,28.90
2022-11-02T18:05:55.790Z,27.70
2022-11-02T18:08:00.839Z,31.75
2022-11-02T18:10:02.795Z,31.95
2022-11-02T18:12:04.816Z,29.80
2022-11-02T18:14:06.814Z,32.60
2022-11-02T18:16:08.694Z,31.05
2022-11-02T18:18:11.114Z,36.47
2022-11-02T18:20:14.059Z,33.95
2022-11-02T18:22:16.039Z,31.77
2022-11-02T18:24:17.993Z,30.50
2022-11-02T18:26:19.938Z,31.42
2022-11-02T18:28:21.780Z,33.72
2022-11-02T18:30:28.233Z,40.08
2022-11-02T18:32:30.185Z,36.28
2022-11-02T18:34:32.027Z,34.65
2022-11-02T18:36:36.858Z,33.40
2022-11-02T18:38:38.814Z,33.50
2022-11-02T18:40:40.730Z,32.47
2022-11-02T18:42:43.843Z,32.10
2022-11-02T18:44:45.735Z,34.22
2022-11-02T18:46:48.198Z,33.83
2022-11-02T18:48:50.367Z,33.55
2022-11-02T18:52:54.028Z,34.05
2022-11-02T18:54:56.590Z,34.33
2022-11-02T18:56:58.481Z,35.35
2022-11-02T18:59:00.417Z,31.95
2022-11-02T19:01:10.213Z,33.35
2022-11-02T19:03:12.270Z,38.03
2022-11-02T19:05:32.901Z,31.13
2022-11-02T19:07:53.416Z,35.08
2022-11-02T19:09:57.433Z,32.97
2022-11-02T19:12:07.694Z,31.13
2022-11-02T19:14:09.590Z,34.50
2022-11-02T19:16:11.671Z,32.53
2022-11-02T19:20:15.310Z,31.83
2022-11-02T19:22:25.864Z,34.65
2022-11-02T19:24:27.735Z,35.45
2022-11-02T19:26:29.867Z,31.75
2022-11-02T19:30:33.658Z,29.92
2022-11-02T19:32:35.496Z,32.75
2022-11-02T19:34:38.287Z,30.33
2022-11-02T19:36:40.640Z,32.85
2022-11-02T19:38:42.468Z,31.90
2022-11-02T19:40:44.342Z,35.65
2022-11-02T19:42:48.749Z,33.85
2022-11-02T19:44:50.663Z,31.95
2022-11-02T19:46:52.715Z,39.45
2022-11-02T19:51:07.917Z,37.20
2022-11-02T19:53:09.962Z,34.40
2022-11-02T19:57:13.616Z,34.97
2022-11-02T19:59:15.571Z,36.10
2022-11-02T20:01:29.257Z,35.67
2022-11-02T20:03:31.524Z,37.80
2022-11-02T20:05:33.445Z,31.33
2022-11-02T20:07:35.301Z,29.80
2022-11-02T20:09:39.432Z,29.55
2022-11-02T20:11:44.739Z,32.90
2022-11-02T20:13:48.209Z,29.98
2022-11-02T20:15:50.125Z,31.20
2022-11-02T20:18:17.866Z,31.10
2022-11-02T20:20:13.774Z,31.50
2022-11-02T20:22:15.691Z,29.35
2022-11-02T20:24:17.582Z,30.05
2022-11-02T20:26:23.713Z,27.48
2022-11-02T20:28:25.540Z,31.60
2022-11-02T20:30:27.561Z,29.52
2022-11-02T20:34:31.645Z,31.15
2022-11-02T20:38:37.066Z,37.40
2022-11-02T20:40:41.334Z,41.42
2022-11-02T20:42:43.433Z,34.42
2022-11-02T20:44:49.190Z,32.17
2022-11-02T20:46:53.288Z,29.92
2022-11-02T20:48:57.011Z,30.67
2022-11-02T20:50:59.310Z,30.75
2022-11-02T20:53:01.198Z,33.17
2022-11-02T20:55:03.201Z,29.65
2022-11-02T20:57:06.942Z,27.30
2022-11-02T20:59:08.777Z,32.40
2022-11-02T21:01:11.775Z,28.95
2022-11-02T21:03:14.836Z,30.42
2022-11-02T21:05:17.222Z,31.33
2022-11-02T21:07:19.289Z,29.85
2022-11-02T21:09:21.155Z,29.20
2022-11-02T21:11:41.413Z,29.02
2022-11-02T21:13:52.213Z,33.33
2022-11-02T21:15:54.380Z,29.27
2022-11-02T21:20:14.105Z,30.20
2022-11-02T21:22:19.870Z,30.27
2022-11-02T21:24:21.970Z,30.88
2022-11-02T21:28:34.307Z,31.17
2022-11-02T21:30:36.201Z,33.38
2022-11-02T21:32:38.105Z,30.70
2022-11-02T21:34:40.000Z,29.88
2022-11-02T21:36:41.877Z,29.95
2022-11-02T21:38:48.681Z,31.55
2022-11-02T21:40:50.890Z,31.55
2022-11-02T21:42:52.767Z,32.72
2022-11-02T21:44:54.641Z,30.95
2022-11-02T21:46:57.251Z,29.45
2022-11-02T21:48:59.232Z,28.83
2022-11-02T21:51:06.214Z,35.75
2022-11-02T21:53:08.351Z,32.17
2022-11-02T21:55:10.683Z,34.17
2022-11-02T21:59:14.568Z,30.85
2022-11-02T22:03:38.609Z,33.58
2022-11-02T22:05:59.472Z,33.13
2022-11-02T22:08:20.165Z,36.45
2022-11-02T22:10:22.205Z,32.13
2022-11-02T22:12:42.671Z,37.08
2022-11-02T22:14:44.965Z,33.28
2022-11-02T22:16:46.942Z,33.30
2022-11-02T22:18:49.212Z,34.00
2022-11-02T22:20:55.505Z,36.67
2022-11-02T22:22:57.374Z,36.45
2022-11-02T22:24:59.219Z,31.98
2022-11-02T22:27:01.198Z,32.67
2022-11-02T22:29:04.474Z,33.83
2022-11-02T22:31:10.743Z,35.95
2022-11-02T22:33:12.634Z,35.20
2022-11-02T22:35:14.616Z,34.50
2022-11-02T22:37:35.036Z,32.10
2022-11-02T22:39:36.850Z,35.60
2022-11-02T22:41:45.118Z,34.08
2022-11-02T22:43:52.560Z,33.42
2022-11-02T22:46:05.991Z,34.35
2022-11-02T22:48:07.902Z,32.47
2022-11-02T22:50:09.824Z,33.58
2022-11-02T22:52:11.669Z,34.65
2022-11-02T22:54:16.694Z,35.42
2022-11-02T22:56:20.928Z,34.58
2022-11-02T22:58:22.774Z,34.95
2022-11-02T23:00:24.725Z,35.00
2022-11-02T23:02:26.582Z,32.10
2022-11-02T23:04:28.466Z,35.58
2022-11-02T23:06:30.469Z,35.33
2022-11-02T23:08:39.745Z,35.28
2022-11-02T23:11:00.110Z,38.17
2022-11-02T23:13:02.006Z,33.63
2022-11-02T23:15:04.097Z,34.42
2022-11-02T23:19:33.078Z,33.87
2022-11-02T23:21:35.068Z,39.10
2022-11-02T23:24:03.186Z,35.13
2022-11-02T23:26:05.256Z,35.40
2022-11-02T23:28:25.697Z,36.05
2022-11-02T23:30:54.069Z,32.70
2022-11-02T23:32:55.935Z,33.67
2022-11-02T23:35:20.608Z,31.75
2022-11-02T23:37:22.436Z,35.70
2022-11-02T23:39:42.913Z,32.92
2022-11-02T23:41:44.828Z,34.47
2022-11-02T23:43:47.688Z,33.83
2022-11-02T23:45:49.575Z,35.22
2022-11-02T23:47:57.255Z,33.75
2022-11-02T23:49:59.200Z,36.13
2022-11-02T23:52:19.419Z,34.13
2022-11-02T23:54:40.168Z,35.53
2022-11-02T23:56:45.632Z,33.38
2022-11-02T23:58:48.030Z,33.35
